Time;durP1;ratioP1;P1;durP2;ratioP2;P2;SDS_P1;SDS_P2;PMS_P1;PMS_P2;Temp;Humidity;BMP_temperature;BMP_pressure;BME280_temperature;BME280_humidity;BME280_pressure;Samples;Min_cycle;Max_cycle;Signal;HPM_P1;HPM_P2
2023/06/21 00:00:22;;;;;;;41.30;4.70;;;17.80;99.90;;;;;;4974154;28;20222;-78
2023/06/21 00:02:51;;;;;;;25.23;3.58;;;17.70;99.90;;;;;;4977045;28;20218;-78
2023/06/21 00:05:19;;;;;;;23.60;3.60;;;17.60;99.90;;;;;;4973935;28;20215;-77
2023/06/21 00:07:47;;;;;;;14.27;2.80;;;17.60;99.90;;;;;;4977615;28;20277;-77
2023/06/21 00:10:14;;;;;;;10.15;2.70;;;17.60;99.90;;;;;;4975715;28;20210;-78
2023/06/21 00:12:41;;;;;;;10.65;2.70;;;17.50;99.90;;;;;;4978437;28;20252;-78
2023/06/21 00:15:09;;;;;;;5.82;2.10;;;17.50;99.90;;;;;;4976072;28;20226;-78
2023/06/21 00:17:36;;;;;;;5.53;2.20;;;17.40;99.90;;;;;;4976130;28;20237;-79
2023/06/21 00:20:03;;;;;;;9.13;2.40;;;17.40;99.90;;;;;;4985205;28;20814;-79
2023/06/21 00:22:32;;;;;;;7.72;2.50;;;17.40;99.90;;;;;;4958718;28;20226;-79
2023/06/21 00:24:58;;;;;;;8.43;2.78;;;17.30;99.90;;;;;;4963876;28;20238;-77
2023/06/21 00:27:25;;;;;;;7.43;2.67;;;17.30;99.90;;;;;;4974071;28;20802;-81
2023/06/21 00:29:52;;;;;;;6.30;1.95;;;17.30;99.90;;;;;;4975532;28;20242;-81
2023/06/21 00:32:19;;;;;;;8.43;2.78;;;17.30;99.90;;;;;;4958889;28;20407;-81
2023/06/21 00:34:47;;;;;;;5.07;1.95;;;17.40;99.90;;;;;;4964436;28;20226;-81
2023/06/21 00:37:14;;;;;;;7.38;2.05;;;17.40;99.90;;;;;;4962360;28;20309;-80
2023/06/21 00:39:42;;;;;;;3.25;1.98;;;17.40;99.90;;;;;;4975876;28;20584;-80
2023/06/21 00:42:10;;;;;;;5.30;2.20;;;17.40;99.90;;;;;;4961232;28;20250;-80
2023/06/21 00:44:39;;;;;;;6.05;2.35;;;17.30;99.90;;;;;;4962309;28;20313;-81
2023/06/21 00:47:06;;;;;;;4.75;1.92;;;17.40;99.90;;;;;;4954272;28;20255;-80
2023/06/21 00:49:33;;;;;;;5.80;2.10;;;17.30;99.90;;;;;;5007063;23;20288;-80
2023/06/21 00:52:00;;;;;;;4.25;1.80;;;17.30;99.90;;;;;;5021151;28;20232;-81
2023/06/21 00:54:30;;;;;;;6.28;2.55;;;17.30;99.90;;;;;;5022808;28;20229;-81
2023/06/21 00:56:58;;;;;;;7.25;2.42;;;17.20;99.90;;;;;;5040660;28;20286;-81
2023/06/21 00:59:27;;;;;;;5.03;2.50;;;17.10;99.90;;;;;;5037091;28;20232;-81
2023/06/21 01:01:56;;;;;;;5.97;2.70;;;17.10;99.90;;;;;;5039023;28;20670;-81
2023/06/21 01:04:23;;;;;;;4.55;2.08;;;17.00;99.90;;;;;;5037939;28;20291;-80
2023/06/21 01:06:59;;;;;;;3.60;2.22;;;17.00;99.90;;;;;;5037544;28;20236;-81
2023/06/21 01:09:37;;;;;;;4.85;2.50;;;16.90;99.90;;;;;;5037371;28;20244;-81
2023/06/21 01:12:15;;;;;;;5.47;2.35;;;16.90;99.90;;;;;;5039246;28;20224;-82
2023/06/21 01:14:52;;;;;;;4.32;2.63;;;16.80;99.90;;;;;;5039655;28;20829;-82
2023/06/21 01:17:21;;;;;;;4.15;2.20;;;16.80;99.90;;;;;;5038757;28;20628;-82
2023/06/21 01:19:50;;;;;;;3.08;2.20;;;16.80;99.90;;;;;;5037131;28;20232;-82
2023/06/21 01:22:34;;;;;;;5.68;2.20;;;16.80;99.90;;;;;;5036397;28;20233;-82
2023/06/21 01:25:13;;;;;;;5.00;2.28;;;16.70;99.90;;;;;;5037487;28;20311;-81
2023/06/21 01:27:54;;;;;;;5.60;2.40;;;16.70;99.90;;;;;;5037069;28;20236;-82
2023/06/21 01:30:27;;;;;;;4.32;2.53;;;16.80;99.90;;;;;;5034838;28;20294;-82
2023/06/21 01:32:56;;;;;;;4.00;2.00;;;16.80;99.90;;;;;;5033965;28;20228;-81
2023/06/21 01:35:24;;;;;;;3.28;2.13;;;16.80;99.90;;;;;;5033888;28;20221;-82
2023/06/21 01:37:52;;;;;;;7.28;2.80;;;16.80;99.90;;;;;;5034364;28;20228;-81
2023/06/21 01:40:19;;;;;;;4.53;2.40;;;16.80;99.90;;;;;;5032813;28;20237;-81
2023/06/21 01:42:48;;;;;;;4.57;2.60;;;16.80;99.90;;;;;;5033315;28;20694;-81
2023/06/21 01:45:15;;;;;;;4.18;2.75;;;16.80;99.90;;;;;;5036047;28;20244;-81
2023/06/21 01:47:45;;;;;;;4.25;2.63;;;16.80;99.90;;;;;;5039168;28;20225;-81
2023/06/21 01:50:13;;;;;;;4.47;2.65;;;16.80;99.90;;;;;;5035010;28;20228;-82
2023/06/21 01:52:41;;;;;;;4.28;2.50;;;16.80;99.90;;;;;;5031479;28;20824;-82
2023/06/21 01:55:10;;;;;;;3.75;2.33;;;16.80;99.90;;;;;;5030446;28;20910;-82
2023/06/21 01:57:39;;;;;;;4.50;2.50;;;16.80;99.90;;;;;;5027616;28;20213;-81
2023/06/21 02:00:15;;;;;;;4.30;2.17;;;16.90;99.90;;;;;;5029047;28;20279;-82
2023/06/21 02:02:48;;;;;;;5.78;2.78;;;16.90;99.90;;;;;;5037381;28;20252;-82
2023/06/21 02:05:17;;;;;;;5.00;2.30;;;17.00;99.90;;;;;;5034527;28;20283;-82
2023/06/21 02:07:45;;;;;;;2.90;2.15;;;17.00;99.90;;;;;;5037893;28;20685;-82
2023/06/21 02:10:12;;;;;;;3.38;2.45;;;17.00;99.90;;;;;;5038350;28;20229;-81
2023/06/21 02:12:40;;;;;;;3.80;2.25;;;17.00;99.90;;;;;;5038712;28;20225;-82
2023/06/21 02:15:08;;;;;;;2.75;2.20;;;17.00;99.90;;;;;;5037372;28;20231;-83
2023/06/21 02:17:35;;;;;;;4.43;2.38;;;17.10;99.90;;;;;;5033027;28;20220;-82
2023/06/21 02:20:07;;;;;;;5.80;2.55;;;17.10;99.90;;;;;;5031915;28;20237;-83
2023/06/21 02:22:34;;;;;;;4.22;2.45;;;17.10;99.90;;;;;;5028185;28;20228;-81
2023/06/21 02:25:01;;;;;;;4.82;2.60;;;17.20;99.90;;;;;;5055705;28;20273;-82
2023/06/21 02:27:28;;;;;;;5.68;2.97;;;17.20;99.90;;;;;;5041391;28;20232;-82
2023/06/21 02:29:55;;;;;;;4.55;2.60;;;17.20;99.90;;;;;;5037539;28;20243;-81
2023/06/21 02:32:21;;;;;;;3.63;2.97;;;17.20;99.90;;;;;;5035110;28;20243;-82
2023/06/21 02:34:48;;;;;;;4.20;3.05;;;17.20;99.90;;;;;;5039005;28;20240;-82
2023/06/21 02:37:16;;;;;;;3.25;2.60;;;17.20;99.90;;;;;;5040970;28;20653;-82
2023/06/21 02:39:43;;;;;;;5.30;3.05;;;17.20;99.90;;;;;;5043338;28;20236;-83
2023/06/21 02:42:10;;;;;;;4.68;2.92;;;17.20;99.90;;;;;;5040948;28;20219;-83
2023/06/21 02:44:38;;;;;;;3.55;2.70;;;17.20;99.90;;;;;;5036479;28;20222;-83
2023/06/21 02:47:06;;;;;;;4.97;2.90;;;17.20;99.90;;;;;;5051380;28;20849;-82
2023/06/21 02:49:36;;;;;;;4.80;3.33;;;17.20;99.90;;;;;;5043031;28;20865;-82
2023/06/21 02:52:03;;;;;;;4.53;2.80;;;17.20;99.90;;;;;;5042041;28;20315;-82
2023/06/21 02:54:31;;;;;;;4.47;3.10;;;17.20;99.90;;;;;;5028901;28;20228;-82
2023/06/21 02:56:59;;;;;;;4.15;3.25;;;17.20;99.90;;;;;;5029305;28;20217;-82
2023/06/21 02:59:28;;;;;;;4.65;2.88;;;17.20;99.90;;;;;;5024639;28;20259;-82
2023/06/21 03:01:55;;;;;;;4.57;3.00;;;17.20;99.90;;;;;;5034013;28;20576;-81
2023/06/21 03:04:22;;;;;;;5.07;3.63;;;17.20;99.90;;;;;;5032249;28;20276;-82
2023/06/21 03:06:49;;;;;;;3.80;3.40;;;17.20;99.90;;;;;;5031457;28;20251;-82
2023/06/21 03:09:15;;;;;;;7.03;3.38;;;17.10;99.90;;;;;;5029372;28;20234;-82
2023/06/21 03:11:44;;;;;;;3.78;3.17;;;17.10;99.90;;;;;;5033913;28;20233;-82
2023/06/21 03:14:11;;;;;;;5.40;3.17;;;17.10;99.90;;;;;;5031854;28;20216;-81
2023/06/21 03:16:38;;;;;;;6.85;3.67;;;17.10;99.90;;;;;;5030426;28;20217;-83
2023/06/21 03:19:05;;;;;;;5.75;3.63;;;17.10;99.90;;;;;;5035429;28;20259;-83
2023/06/21 03:21:33;;;;;;;6.13;3.30;;;17.00;99.90;;;;;;5033187;28;21297;-81
2023/06/21 03:24:00;;;;;;;6.65;3.30;;;17.00;99.90;;;;;;5031738;28;20850;-82
2023/06/21 03:26:26;;;;;;;5.20;3.70;;;17.00;99.90;;;;;;5028037;28;20260;-83
2023/06/21 03:28:57;;;;;;;7.93;4.10;;;17.00;99.90;;;;;;5030566;28;20225;-84
2023/06/21 03:31:24;;;;;;;6.18;4.45;;;17.00;99.90;;;;;;5028502;28;20236;-81
2023/06/21 03:33:51;;;;;;;5.30;4.22;;;17.00;99.90;;;;;;5033301;28;20238;-81
2023/06/21 03:36:18;;;;;;;8.88;5.13;;;17.00;99.90;;;;;;5024779;28;20228;-82
2023/06/21 03:38:45;;;;;;;8.07;6.30;;;17.00;99.90;;;;;;5028364;28;20232;-82
2023/06/21 03:41:12;;;;;;;9.85;6.28;;;16.90;99.90;;;;;;5043822;28;20220;-82
2023/06/21 03:43:39;;;;;;;7.57;6.03;;;16.90;99.90;;;;;;5031590;28;20310;-82
2023/06/21 03:46:11;;;;;;;8.85;5.80;;;16.90;99.90;;;;;;5031315;28;20274;-82
2023/06/21 03:48:38;;;;;;;9.05;6.10;;;16.90;99.90;;;;;;5033679;28;20232;-83
2023/06/21 03:51:05;;;;;;;8.73;5.72;;;16.90;99.90;;;;;;5032128;28;20817;-82
2023/06/21 03:53:33;;;;;;;8.30;5.93;;;16.90;99.90;;;;;;5014077;28;20283;-82
2023/06/21 03:56:00;;;;;;;8.32;5.85;;;17.00;99.90;;;;;;5027977;28;20292;-81
2023/06/21 03:58:26;;;;;;;8.85;5.80;;;17.00;99.90;;;;;;5043669;28;20285;-80
2023/06/21 04:00:53;;;;;;;9.30;5.97;;;17.00;99.90;;;;;;5032094;28;20236;-81
2023/06/21 04:03:22;;;;;;;8.82;5.80;;;17.00;99.90;;;;;;5033191;28;20217;-82
2023/06/21 04:05:49;;;;;;;9.65;5.90;;;17.00;99.90;;;;;;5035587;28;20862;-82
2023/06/21 04:08:16;;;;;;;8.60;5.80;;;17.10;99.90;;;;;;5035189;28;20228;-82
2023/06/21 04:10:43;;;;;;;8.85;6.18;;;17.10;99.90;;;;;;5034010;28;20324;-81
2023/06/21 04:13:10;;;;;;;7.88;5.50;;;17.10;99.90;;;;;;5034209;28;20236;-82
2023/06/21 04:15:39;;;;;;;8.20;5.40;;;17.20;99.90;;;;;;5034054;28;20310;-80
2023/06/21 04:18:06;;;;;;;6.97;5.25;;;17.20;99.90;;;;;;5023676;28;20220;-81
2023/06/21 04:20:35;;;;;;;10.25;5.97;;;17.30;99.90;;;;;;5028237;28;20220;-81
2023/06/21 04:23:02;;;;;;;9.18;6.28;;;17.30;99.90;;;;;;5024075;28;20217;-81
2023/06/21 04:25:29;;;;;;;10.48;6.00;;;17.30;99.90;;;;;;5029181;28;20224;-81
2023/06/21 04:27:56;;;;;;;8.43;6.13;;;17.40;99.90;;;;;;5026888;28;20262;-81
2023/06/21 04:30:23;;;;;;;10.93;6.95;;;17.40;99.90;;;;;;5047771;28;20287;-81
2023/06/21 04:32:50;;;;;;;10.15;6.97;;;17.50;99.90;;;;;;5031396;28;20312;-81
2023/06/21 04:35:18;;;;;;;9.57;6.80;;;17.50;99.90;;;;;;5049973;28;20631;-82
2023/06/21 04:37:48;;;;;;;11.20;8.07;;;17.60;99.90;;;;;;5050903;28;20292;-81
2023/06/21 04:40:16;;;;;;;12.20;8.48;;;17.70;99.90;;;;;;5027479;28;20220;-82
2023/06/21 04:42:43;;;;;;;11.88;9.40;;;17.70;99.90;;;;;;5032388;28;20232;-82
2023/06/21 04:45:14;;;;;;;14.20;8.85;;;17.80;99.90;;;;;;5041551;28;20234;-82
2023/06/21 04:47:41;;;;;;;13.85;8.80;;;17.80;99.90;;;;;;5055424;28;20228;-82
2023/06/21 04:50:10;;;;;;;14.93;9.07;;;17.90;99.90;;;;;;5031503;28;20228;-82
2023/06/21 04:52:37;;;;;;;16.23;9.85;;;18.00;99.90;;;;;;5035567;28;20288;-80
2023/06/21 04:55:06;;;;;;;13.93;9.80;;;18.10;99.90;;;;;;5029551;28;20227;-81
2023/06/21 04:57:34;;;;;;;15.88;10.30;;;18.20;99.90;;;;;;5031417;28;20472;-81
2023/06/21 05:00:06;;;;;;;14.75;10.55;;;18.30;99.90;;;;;;5048614;28;20970;-81
2023/06/21 05:02:33;;;;;;;13.80;10.30;;;18.30;99.90;;;;;;5052425;28;20693;-81
2023/06/21 05:05:00;;;;;;;15.43;11.27;;;18.30;99.90;;;;;;5031465;28;20212;-82
2023/06/21 05:07:27;;;;;;;16.45;11.82;;;18.40;99.90;;;;;;5024407;28;20857;-82
2023/06/21 05:09:53;;;;;;;15.98;11.77;;;18.40;99.90;;;;;;5048929;28;20238;-81
2023/06/21 05:12:22;;;;;;;16.35;12.98;;;18.40;99.90;;;;;;5034187;28;20219;-81
2023/06/21 05:14:48;;;;;;;16.70;11.82;;;18.50;99.90;;;;;;5034420;28;20285;-81
2023/06/21 05:17:15;;;;;;;15.25;11.43;;;18.60;99.90;;;;;;5030073;28;20228;-81
2023/06/21 05:19:43;;;;;;;13.93;11.50;;;18.60;99.90;;;;;;5025515;28;20739;-82
2023/06/21 05:22:09;;;;;;;14.15;12.23;;;18.70;99.90;;;;;;5033814;28;20283;-82
2023/06/21 05:24:37;;;;;;;17.17;12.60;;;18.80;99.90;;;;;;5040890;28;20310;-82
2023/06/21 05:27:04;;;;;;;15.80;12.55;;;18.90;99.90;;;;;;5058318;28;20228;-82
2023/06/21 05:29:34;;;;;;;13.80;11.00;;;19.00;99.90;;;;;;5040446;28;20327;-82
2023/06/21 05:32:01;;;;;;;13.73;11.38;;;19.10;99.90;;;;;;5056185;28;20273;-82
2023/06/21 05:34:28;;;;;;;12.93;10.77;;;19.20;99.90;;;;;;5032779;28;20287;-80
2023/06/21 05:36:55;;;;;;;13.30;11.68;;;19.30;99.90;;;;;;5034454;28;20226;-79
2023/06/21 05:39:22;;;;;;;14.98;12.75;;;19.30;99.90;;;;;;5048889;28;20278;-79
2023/06/21 05:41:48;;;;;;;16.25;13.27;;;19.30;99.90;;;;;;5024202;28;20239;-80
2023/06/21 05:44:16;;;;;;;16.90;14.38;;;19.40;99.90;;;;;;5051126;28;20226;-79
2023/06/21 05:46:44;;;;;;;17.08;14.30;;;19.40;99.90;;;;;;5030290;28;20235;-79
2023/06/21 05:49:10;;;;;;;18.75;16.25;;;19.40;99.90;;;;;;5025746;28;20223;-80
2023/06/21 05:51:37;;;;;;;19.05;16.95;;;19.40;99.90;;;;;;5044849;28;20311;-80
2023/06/21 05:54:04;;;;;;;18.60;16.77;;;19.30;99.90;;;;;;5024287;28;20228;-79
2023/06/21 05:56:36;;;;;;;18.70;16.80;;;19.30;99.90;;;;;;5049578;28;20259;-79
2023/06/21 05:59:02;;;;;;;18.90;16.80;;;19.30;99.90;;;;;;5049685;28;20216;-81
2023/06/21 06:01:29;;;;;;;20.02;16.33;;;19.30;99.90;;;;;;5037278;28;20323;-81
2023/06/21 06:03:57;;;;;;;19.73;17.63;;;19.30;99.90;;;;;;5017260;28;20691;-82
2023/06/21 06:06:24;;;;;;;21.23;17.38;;;19.20;99.90;;;;;;5027493;28;20251;-81
2023/06/21 06:08:50;;;;;;;23.00;18.98;;;19.20;99.90;;;;;;5029257;28;20217;-80
2023/06/21 06:11:17;;;;;;;20.83;18.27;;;19.20;99.90;;;;;;5048827;28;20249;-81
2023/06/21 06:13:44;;;;;;;22.60;18.77;;;19.20;99.90;;;;;;5040543;28;20365;-82
2023/06/21 06:16:13;;;;;;;23.83;19.27;;;19.20;99.90;;;;;;5042358;28;20315;-81
2023/06/21 06:18:40;;;;;;;26.02;21.20;;;19.20;99.90;;;;;;5028345;28;20395;-82
2023/06/21 06:21:08;;;;;;;22.00;19.48;;;19.30;99.90;;;;;;5018656;28;20277;-81
2023/06/21 06:23:34;;;;;;;24.05;20.27;;;19.30;99.90;;;;;;5018173;28;20233;-81
2023/06/21 06:26:01;;;;;;;25.20;20.45;;;19.40;99.90;;;;;;5027101;28;20240;-81
2023/06/21 06:28:28;;;;;;;25.50;21.92;;;19.40;99.90;;;;;;5029307;28;20279;-81
2023/06/21 06:30:54;;;;;;;27.25;21.95;;;19.50;99.90;;;;;;5024648;28;20220;-81
2023/06/21 06:33:21;;;;;;;26.98;23.27;;;19.50;99.90;;;;;;5041858;28;20224;-81
2023/06/21 06:35:48;;;;;;;27.45;22.85;;;19.50;99.90;;;;;;5030455;28;20228;-81
2023/06/21 06:38:16;;;;;;;30.25;23.90;;;19.60;99.90;;;;;;5049612;28;20332;-81
2023/06/21 06:40:42;;;;;;;28.45;23.80;;;19.60;99.90;;;;;;5031265;28;20247;-81
2023/06/21 06:43:09;;;;;;;29.23;25.40;;;19.80;99.90;;;;;;5046214;28;20311;-81
2023/06/21 06:45:36;;;;;;;30.27;25.10;;;20.00;99.90;;;;;;5042656;28;20315;-81
2023/06/21 06:48:02;;;;;;;28.73;24.60;;;20.20;99.90;;;;;;5025719;28;20224;-80
2023/06/21 06:50:36;;;;;;;28.63;24.40;;;20.50;99.90;;;;;;5039066;28;20232;-81
2023/06/21 06:53:04;;;;;;;25.73;22.98;;;20.70;99.90;;;;;;5063378;23;20229;-80
2023/06/21 06:55:32;;;;;;;23.92;21.33;;;20.90;99.90;;;;;;5038588;28;20220;-78
2023/06/21 06:57:59;;;;;;;24.30;21.60;;;21.10;99.90;;;;;;5050830;28;20636;-81
2023/06/21 07:00:26;;;;;;;24.38;21.77;;;21.30;99.90;;;;;;5047990;28;20284;-79
2023/06/21 07:02:56;;;;;;;22.48;20.20;;;21.60;99.90;;;;;;5051388;28;20243;-82
2023/06/21 07:05:23;;;;;;;24.55;21.75;;;21.90;99.90;;;;;;5066975;28;20238;-81
2023/06/21 07:07:49;;;;;;;22.77;20.48;;;22.20;99.90;;;;;;5071615;28;20223;-79
2023/06/21 07:10:16;;;;;;;22.08;19.85;;;22.40;99.90;;;;;;5069915;28;20231;-80
2023/06/21 07:12:44;;;;;;;22.02;19.52;;;22.60;99.90;;;;;;5071328;28;20235;-79
2023/06/21 07:15:11;;;;;;;21.50;19.13;;;22.80;99.90;;;;;;5071683;28;20303;-80
2023/06/21 07:17:38;;;;;;;19.85;17.85;;;23.00;99.90;;;;;;5060438;28;20600;-80
2023/06/21 07:20:06;;;;;;;19.50;17.48;;;23.30;99.90;;;;;;5063191;28;20224;-81
2023/06/21 07:22:33;;;;;;;19.52;16.98;;;23.60;99.90;;;;;;5049826;28;20231;-81
2023/06/21 07:24:59;;;;;;;19.75;15.43;;;23.90;99.90;;;;;;5072400;28;20500;-81
2023/06/21 07:27:27;;;;;;;17.98;15.90;;;24.20;99.90;;;;;;5069998;28;20598;-81
2023/06/21 07:29:55;;;;;;;19.02;15.93;;;24.40;99.90;;;;;;5072266;28;20258;-80
2023/06/21 07:32:22;;;;;;;17.17;15.38;;;24.40;99.90;;;;;;5070832;28;20241;-80
2023/06/21 07:34:49;;;;;;;16.45;14.75;;;24.50;99.90;;;;;;5071637;28;20224;-80
2023/06/21 07:37:16;;;;;;;15.95;14.40;;;24.60;99.90;;;;;;5070634;28;20226;-85
2023/06/21 07:39:42;;;;;;;16.05;14.43;;;24.70;99.90;;;;;;5062120;28;20229;-81
2023/06/21 07:42:09;;;;;;;16.13;14.55;;;24.80;99.90;;;;;;5058323;28;20273;-81
2023/06/21 07:44:36;;;;;;;14.90;13.60;;;24.90;99.90;;;;;;5058351;28;20231;-81
2023/06/21 07:47:04;;;;;;;14.68;13.38;;;25.10;99.90;;;;;;5064646;28;20211;-79
2023/06/21 07:49:31;;;;;;;14.32;12.93;;;25.30;99.90;;;;;;5058054;28;20232;-79
2023/06/21 07:51:58;;;;;;;15.55;13.85;;;25.60;99.90;;;;;;5057527;28;20610;-80
2023/06/21 07:54:24;;;;;;;15.38;13.82;;;25.90;99.90;;;;;;5074955;28;20644;-79
2023/06/21 07:56:51;;;;;;;14.52;12.70;;;26.30;99.90;;;;;;5062681;28;21000;-80
2023/06/21 07:59:18;;;;;;;13.88;12.68;;;26.60;99.90;;;;;;5067251;28;20223;-80
2023/06/21 08:01:44;;;;;;;14.63;13.32;;;26.80;99.90;;;;;;5060864;28;20227;-80
2023/06/21 08:04:12;;;;;;;14.52;13.23;;;26.90;99.90;;;;;;5062251;28;20258;-80
2023/06/21 08:06:39;;;;;;;15.38;14.07;;;26.90;99.90;;;;;;5060370;28;20223;-80
2023/06/21 08:09:06;;;;;;;15.93;14.32;;;26.90;99.90;;;;;;5042526;28;20279;-79
2023/06/21 08:11:32;;;;;;;15.25;13.80;;;26.90;99.90;;;;;;5058593;28;20810;-79
2023/06/21 08:13:59;;;;;;;15.10;13.80;;;26.90;99.90;;;;;;5070889;28;20238;-81
2023/06/21 08:16:26;;;;;;;15.43;14.00;;;27.00;99.90;;;;;;5067432;28;20279;-82
2023/06/21 08:18:52;;;;;;;16.33;14.82;;;27.00;99.90;;;;;;5071839;28;20223;-81
2023/06/21 08:21:20;;;;;;;14.32;13.02;;;27.20;99.90;;;;;;5063970;28;20227;-81
2023/06/21 08:23:47;;;;;;;13.68;12.38;;;27.30;99.90;;;;;;5072113;28;20295;-82
2023/06/21 08:26:14;;;;;;;14.00;12.70;;;27.50;99.90;;;;;;5068482;28;20207;-82
2023/06/21 08:28:41;;;;;;;14.77;13.25;;;27.80;99.90;;;;;;5068476;28;20231;-82
2023/06/21 08:31:08;;;;;;;13.23;11.93;;;28.20;99.90;;;;;;5063486;28;20215;-81
2023/06/21 08:33:34;;;;;;;12.15;11.05;;;28.50;99.90;;;;;;5068906;28;20238;-81
2023/06/21 08:36:01;;;;;;;13.32;12.02;;;28.70;99.90;;;;;;5064765;28;20220;-80
2023/06/21 08:38:29;;;;;;;12.43;11.32;;;29.10;99.90;;;;;;5066808;28;20322;-81
2023/06/21 08:40:59;;;;;;;12.63;11.50;;;29.30;99.80;;;;;;5066462;28;20235;-80
2023/06/21 08:43:26;;;;;;;13.38;12.10;;;29.50;99.30;;;;;;5058854;28;20250;-81
2023/06/21 08:45:53;;;;;;;14.32;12.82;;;29.60;99.60;;;;;;5060499;28;20225;-81
2023/06/21 08:48:23;;;;;;;12.20;11.15;;;29.60;99.00;;;;;;5063769;28;20693;-81
2023/06/21 08:50:50;;;;;;;11.65;10.55;;;29.50;98.30;;;;;;5053904;28;20231;-81
2023/06/21 08:53:26;;;;;;;9.75;8.85;;;29.30;97.80;;;;;;5062141;28;20613;-81
2023/06/21 08:55:54;;;;;;;8.57;7.82;;;29.10;97.40;;;;;;5063593;28;20233;-81
2023/06/21 08:58:25;;;;;;;9.05;8.15;;;29.10;98.00;;;;;;5062209;28;20806;-81
2023/06/21 09:00:54;;;;;;;9.95;7.88;;;29.00;98.10;;;;;;5063579;28;20215;-81
2023/06/21 09:03:26;;;;;;;7.78;6.95;;;29.20;99.20;;;;;;5061579;28;20219;-81
2023/06/21 09:05:56;;;;;;;8.23;7.43;;;29.40;98.20;;;;;;5065736;28;20254;-81
2023/06/21 09:08:24;;;;;;;9.50;8.43;;;29.70;97.60;;;;;;5063364;28;20930;-81
2023/06/21 09:10:54;;;;;;;9.27;8.35;;;30.00;95.50;;;;;;5062300;28;20223;-81
2023/06/21 09:13:23;;;;;;;9.10;8.00;;;30.20;96.10;;;;;;5066310;28;20334;-81
2023/06/21 09:15:51;;;;;;;9.52;8.18;;;30.30;96.50;;;;;;5065101;28;20264;-81
2023/06/21 09:18:18;;;;;;;8.45;7.65;;;30.50;95.60;;;;;;5060141;28;20231;-81
2023/06/21 09:20:48;;;;;;;8.75;7.55;;;30.70;95.80;;;;;;5063031;28;20227;-81
2023/06/21 09:23:15;;;;;;;9.32;8.43;;;31.00;94.80;;;;;;5054358;28;20306;-81
2023/06/21 09:25:44;;;;;;;8.88;8.07;;;31.20;93.90;;;;;;5057866;28;20231;-81
2023/06/21 09:28:12;;;;;;;7.75;6.93;;;31.30;93.30;;;;;;5063157;28;20223;-81
2023/06/21 09:30:41;;;;;;;9.25;7.15;;;31.30;92.50;;;;;;5059086;28;20717;-81
2023/06/21 09:33:08;;;;;;;7.55;6.35;;;31.40;92.10;;;;;;5062880;28;20219;-81
2023/06/21 09:35:36;;;;;;;7.03;6.25;;;31.40;91.80;;;;;;5064028;28;20254;-81
2023/06/21 09:38:21;;;;;;;8.00;6.25;;;31.40;91.30;;;;;;5061554;28;20227;-81
2023/06/21 09:40:48;;;;;;;6.85;5.88;;;31.40;91.10;;;;;;5068803;28;20240;-81
2023/06/21 09:43:16;;;;;;;6.75;6.15;;;31.40;91.00;;;;;;5063569;28;20236;-81
2023/06/21 09:45:45;;;;;;;6.50;5.88;;;31.30;91.00;;;;;;5065761;28;20279;-81
2023/06/21 09:48:15;;;;;;;7.30;6.53;;;31.30;90.80;;;;;;5062270;28;20224;-81
2023/06/21 09:50:43;;;;;;;7.55;6.25;;;31.30;90.40;;;;;;5082539;28;20276;-81
2023/06/21 09:53:11;;;;;;;8.30;6.65;;;31.10;90.80;;;;;;5063310;28;20235;-80
2023/06/21 09:55:44;;;;;;;8.57;7.60;;;31.00;90.50;;;;;;5063854;28;20740;-82
2023/06/21 09:58:11;;;;;;;8.23;7.43;;;30.90;90.20;;;;;;5061031;28;20625;-82
2023/06/21 10:00:39;;;;;;;9.00;7.25;;;30.60;89.50;;;;;;5062390;28;20235;-82
2023/06/21 10:03:06;;;;;;;7.63;6.63;;;30.40;90.20;;;;;;5061996;28;20654;-82
2023/06/21 10:05:32;;;;;;;7.78;6.93;;;30.30;90.30;;;;;;5063161;28;20227;-82
2023/06/21 10:07:59;;;;;;;6.75;6.13;;;30.20;88.20;;;;;;5062238;28;20816;-82
2023/06/21 10:10:26;;;;;;;6.07;5.47;;;30.20;88.90;;;;;;5067309;28;20234;-82
2023/06/21 10:12:54;;;;;;;6.82;6.13;;;30.30;89.30;;;;;;5063540;28;20223;-82
2023/06/21 10:15:21;;;;;;;6.88;6.20;;;30.40;88.70;;;;;;5065399;28;20224;-82
2023/06/21 10:17:49;;;;;;;8.63;7.80;;;30.60;88.40;;;;;;5064348;28;20277;-82
2023/06/21 10:20:17;;;;;;;7.95;7.15;;;30.80;86.70;;;;;;5065392;28;20282;-82
2023/06/21 10:22:46;;;;;;;7.00;6.30;;;31.00;87.00;;;;;;5066621;28;20227;-83
2023/06/21 10:25:15;;;;;;;7.07;6.43;;;31.20;86.40;;;;;;5066372;28;20596;-82
2023/06/21 10:27:46;;;;;;;8.38;7.28;;;31.40;85.10;;;;;;5067674;28;20270;-82
2023/06/21 10:30:14;;;;;;;7.30;6.60;;;31.70;84.30;;;;;;5063039;28;20230;-82
2023/06/21 10:32:42;;;;;;;7.60;6.60;;;31.80;84.40;;;;;;5062853;28;20314;-82
2023/06/21 10:35:15;;;;;;;7.50;6.85;;;31.90;83.30;;;;;;5064450;28;20286;-81
2023/06/21 10:37:50;;;;;;;7.30;6.50;;;31.90;81.70;;;;;;5067683;28;20240;-82
2023/06/21 10:40:18;;;;;;;9.63;7.53;;;32.00;81.60;;;;;;5064636;28;20302;-83
2023/06/21 10:42:46;;;;;;;8.18;7.47;;;31.90;82.10;;;;;;5062372;28;20231;-82
2023/06/21 10:45:14;;;;;;;7.50;6.80;;;31.90;81.10;;;;;;5063479;28;20230;-82
2023/06/21 10:47:41;;;;;;;8.05;7.28;;;32.00;80.70;;;;;;5065127;28;20231;-82
2023/06/21 10:50:09;;;;;;;8.40;7.25;;;31.80;78.90;;;;;;5067256;28;20537;-82
2023/06/21 10:52:39;;;;;;;8.60;7.05;;;31.70;79.00;;;;;;5068326;28;20845;-84
2023/06/21 10:55:07;;;;;;;8.50;7.57;;;31.50;77.40;;;;;;5070708;28;20310;-82
2023/06/21 10:57:35;;;;;;;7.38;6.63;;;31.30;77.50;;;;;;5068647;28;20306;-82
2023/06/21 11:00:04;;;;;;;8.27;7.50;;;31.30;78.00;;;;;;5065620;28;20218;-82
2023/06/21 11:02:31;;;;;;;6.68;6.07;;;31.30;77.80;;;;;;5071737;28;20674;-82
2023/06/21 11:05:17;;;;;;;7.63;5.90;;;31.50;79.30;;;;;;5071301;28;20218;-82
2023/06/21 11:07:55;;;;;;;6.80;6.20;;;31.70;79.30;;;;;;5072748;28;20249;-82
2023/06/21 11:10:29;;;;;;;8.18;6.30;;;31.90;77.60;;;;;;5065624;28;20230;-82
2023/06/21 11:12:57;;;;;;;6.70;5.72;;;32.10;77.20;;;;;;5070656;28;20322;-82
2023/06/21 11:15:26;;;;;;;6.00;5.40;;;32.10;77.60;;;;;;5066225;28;20223;-82
2023/06/21 11:17:57;;;;;;;7.60;6.68;;;32.20;76.50;;;;;;5068416;28;20310;-82
2023/06/21 11:20:25;;;;;;;6.47;5.93;;;32.40;75.60;;;;;;5067159;28;20296;-82
2023/06/21 11:23:00;;;;;;;6.18;5.55;;;32.50;74.90;;;;;;5072202;28;20395;-82
2023/06/21 11:25:28;;;;;;;6.10;5.47;;;32.50;73.60;;;;;;5060427;28;20223;-82
2023/06/21 11:28:26;;;;;;;5.85;5.35;;;32.60;73.60;;;;;;5066295;28;20243;-82
2023/06/21 11:31:14;;;;;;;5.20;4.70;;;32.80;73.20;;;;;;5067248;28;20234;-83
2023/06/21 11:33:54;;;;;;;6.03;5.38;;;33.00;73.30;;;;;;5066474;28;20227;-83
2023/06/21 11:36:27;;;;;;;8.75;6.20;;;33.20;71.40;;;;;;5065384;28;20224;-82
2023/06/21 11:39:15;;;;;;;6.72;6.03;;;33.50;70.40;;;;;;5065533;28;20228;-82
2023/06/21 11:42:02;;;;;;;5.80;5.30;;;33.60;70.10;;;;;;5065514;28;20238;-83
2023/06/21 11:44:31;;;;;;;6.20;5.60;;;33.80;69.70;;;;;;5068435;28;20318;-83
2023/06/21 11:47:05;;;;;;;7.30;6.38;;;34.00;68.80;;;;;;5066386;28;20221;-82
2023/06/21 11:49:33;;;;;;;5.82;5.22;;;34.10;67.90;;;;;;5067679;28;20219;-83
2023/06/21 11:52:05;;;;;;;7.07;6.05;;;34.20;68.20;;;;;;5063556;28;20227;-82
2023/06/21 11:54:35;;;;;;;5.15;4.72;;;34.20;66.30;;;;;;5063696;28;20231;-82
2023/06/21 11:57:05;;;;;;;6.45;5.47;;;34.20;66.50;;;;;;5064411;28;20224;-82
2023/06/21 11:59:32;;;;;;;5.68;5.18;;;34.20;65.10;;;;;;5067263;28;20247;-83
2023/06/21 12:02:11;;;;;;;6.18;5.57;;;34.20;65.70;;;;;;5068605;28;20812;-82
2023/06/21 12:04:39;;;;;;;7.38;6.43;;;34.20;63.80;;;;;;5069915;28;20226;-82
2023/06/21 12:07:06;;;;;;;6.22;5.63;;;34.10;62.40;;;;;;5065805;28;20234;-82
2023/06/21 12:09:35;;;;;;;8.30;5.95;;;34.10;63.10;;;;;;5061858;28;20250;-83
2023/06/21 12:12:01;;;;;;;5.50;5.00;;;34.10;62.70;;;;;;5065072;28;20228;-83
2023/06/21 12:14:28;;;;;;;5.78;5.28;;;34.00;63.40;;;;;;5064478;28;20238;-82
2023/06/21 12:16:55;;;;;;;5.13;4.63;;;33.90;62.70;;;;;;5065678;28;20388;-82
2023/06/21 12:19:21;;;;;;;5.47;4.97;;;33.90;62.80;;;;;;5061554;28;20728;-82
2023/06/21 12:21:49;;;;;;;6.28;5.05;;;33.90;62.30;;;;;;5067419;28;20223;-83
2023/06/21 12:24:26;;;;;;;6.25;5.63;;;33.80;62.60;;;;;;5062014;28;20219;-82
2023/06/21 12:26:57;;;;;;;5.93;5.35;;;33.70;61.30;;;;;;5061179;28;20230;-83
2023/06/21 12:29:23;;;;;;;7.38;6.40;;;33.40;61.60;;;;;;5062012;28;20355;-82
2023/06/21 12:31:50;;;;;;;7.70;6.53;;;33.20;62.00;;;;;;5063036;28;20322;-82
2023/06/21 12:34:18;;;;;;;6.38;5.70;;;33.00;62.60;;;;;;5068254;28;20614;-83
2023/06/21 12:36:46;;;;;;;9.15;6.80;;;32.80;63.60;;;;;;5062400;28;20693;-82
2023/06/21 12:39:14;;;;;;;6.43;5.82;;;32.70;63.70;;;;;;5064385;28;20226;-83
2023/06/21 12:41:42;;;;;;;7.20;6.45;;;32.60;63.80;;;;;;5061919;28;20322;-82
2023/06/21 12:44:20;;;;;;;5.40;4.97;;;32.60;64.30;;;;;;5062238;28;20246;-83
2023/06/21 12:46:47;;;;;;;7.10;6.45;;;32.50;64.70;;;;;;5049027;28;20220;-82